Skip to main content

NOAA/GLERL Met Station at Muskegon, MI

Previous 5 days (top of hour only)
See also Previous 3 Hours (2 minute increments)
Jump down to Data
Switch to [English][Metric]
Zoom: Click and drag, Pan: shift-click and drag, Unzoom: double-click, Unzoom All






Note: Speed = mean wind during 2-minute period at top of hour,
Gust = max wind during 2-minute period at top of hour,
Peak = max wind during entire hour.
• See also 5-day windrose plot


NOAA/GLERL Met Station at Muskegon, MI

Previous 5 days (top of hour only)
See also Previous 3 Hours (2 minute increments)
Jump up to Graphs
Switch to [English][Metric]
                  Wind  Wind  Wind   Air   Dew   Rel     Sta   PAR
                   Spd   Gst   Dir  Temp    Pt   Hum    Pres uE/m2/
YYYY-MM-DD   EST   kts   kts   deg     F     F     %   in Hg   sec
2020-01-25 00:00 -99.0 -99.0   -99   0.0   0.0   0.0    0.00     0
2020-01-24 10:00  12.8  16.7   117  35.1  33.0  92.0   29.32   106
2020-01-24 09:00  12.1  15.4   113  35.1  32.9  91.9   29.32    35
2020-01-24 08:00  14.0  17.9   112  35.6  32.6  88.8   29.32     3
2020-01-24 07:00  15.4  19.8   109  34.5  32.4  92.0   29.32     2
2020-01-24 06:00  14.2  17.1   104  33.8  32.1  93.5   29.34     2
2020-01-24 05:00  10.9  13.2    93  32.9  31.2  93.2   29.36     2
2020-01-24 04:00  11.1  15.7    93  32.9  31.1  93.1   29.38     2
2020-01-24 03:00   8.7  11.3   108  33.3  30.7  90.1   29.41     2
2020-01-24 02:00   7.4   8.6   100  33.4  29.6  85.5   29.43     2
2020-01-24 01:00   9.5  11.7    91  34.0  29.5  83.6   29.43     2
2020-01-24 00:00   8.4  10.5   105  33.6  30.3  87.6   29.44     2
2020-01-23 23:00   8.4  10.1   107  34.0  30.3  86.1   29.44     2
2020-01-23 22:00   8.6   9.7   109  33.4  30.1  87.3   29.46     2
2020-01-23 21:00   7.0   8.6   126  33.4  30.3  88.2   29.47     2
2020-01-23 20:00   5.6   6.6   130  33.8  30.3  87.0   29.47     2
2020-01-23 19:00   6.6   7.4   112  33.3  30.8  90.4   29.47     2
2020-01-23 18:00   6.4   7.4   136  33.4  30.7  89.7   29.46     2
2020-01-23 17:00   5.6   7.0   126  32.9  30.8  92.0   29.46    60
2020-01-23 16:00   5.8   7.8   119  32.7  30.8  92.7   29.46   199
2020-01-23 15:00   5.8   7.2   136  32.2  30.7  94.2   29.46   224
2020-01-23 14:00  11.5  13.8   182  31.8  30.7  95.6   29.47   435
2020-01-23 13:00  12.8  15.9   180  31.6  30.2  94.5   29.48   288
2020-01-23 12:00  13.6  14.8   180  31.6  30.2  94.2   29.49   304
2020-01-23 11:00  14.6  15.7   183  31.3  29.5  93.2   29.49   332
2020-01-23 10:00  10.1  11.3   170  30.4  28.6  93.1   29.49   272
2020-01-23 09:00   8.6   9.9   176  30.4  29.1  94.8   29.49    94
2020-01-23 08:00  15.0  17.1   186  31.6  30.7  96.1   29.49     3
2020-01-23 07:00  16.5  17.9   186  31.1  29.6  94.2   29.49     2
2020-01-23 06:00  17.1  18.1   201  31.5  29.6  92.8   29.48     2
2020-01-23 05:00  14.8  16.1   188  32.2  25.1  75.0   29.48     2
2020-01-23 04:00  13.4  14.8   179  32.5  25.2  74.2   29.48     2
2020-01-23 03:00  14.4  15.6   180  32.7  26.3  76.9   29.50     2
2020-01-23 02:00  16.1  17.7   211  33.8  26.7  74.8   29.50     2
2020-01-23 01:00  14.0  16.5   185  32.2  25.0  74.5   29.50     2
2020-01-23 00:00  14.0  15.6   188  32.5  25.6  75.2   29.51     2
2020-01-22 23:00  15.7  17.1   188  32.7  25.9  75.8   29.51     2
2020-01-22 22:00  17.1  18.3   199  32.5  25.5  74.9   29.52     2
2020-01-22 21:00  17.9  20.2   191  32.2  24.7  73.5   29.53     2
2020-01-22 20:00  21.4  23.1   190  32.4  23.8  70.5   29.55     2
2020-01-22 19:00  16.3  17.9   199  32.7  25.8  75.3   29.54     2
2020-01-22 18:00  16.7  17.9   209  33.3  26.0  74.4   29.53     3
2020-01-22 17:00  20.8  23.5   206  32.7  25.1  73.3   29.52   136
2020-01-22 16:00  23.1  24.9   202  32.7  26.4  77.4   29.52   488
2020-01-22 15:00  22.2  24.1   202  32.7  26.7  78.3   29.52   614
2020-01-22 14:00  23.3  25.7   213  33.3  27.0  77.5   29.54  1431
2020-01-22 13:00  22.7  24.5   216  33.4  27.2  77.6   29.56  1689
2020-01-22 12:00  23.7  25.5   215  32.9  26.9  78.2   29.57  1679
2020-01-22 11:00  22.7  25.5   222  32.4  26.2  77.9   29.58   748
2020-01-22 10:00  21.2  23.7   234  32.2  25.8  77.0   29.59   346
2020-01-22 09:00  20.8  22.9   233  31.8  26.4  80.0   29.59   115
2020-01-22 08:00  23.5  26.0   227  31.6  26.1  79.8   29.59     5
2020-01-22 07:00  23.5  27.0   228  31.3  25.9  80.3   29.59     2
2020-01-22 06:00  25.1  27.6   230  31.3  25.9  80.2   29.61     2
2020-01-22 05:00  25.5  29.0   238  31.5  25.7  78.9   29.62     2
2020-01-22 04:00  26.8  29.7   240  31.8  25.5  77.2   29.64     2
2020-01-22 03:00  26.4  30.1   239  31.8  25.6  77.7   29.66     2
2020-01-22 02:00  25.3  27.4   228  31.8  26.4  80.0   29.66     2
2020-01-22 01:00  22.9  26.0   228  31.8  26.0  78.9   29.67     2
2020-01-22 00:00  22.4  25.1   221  31.8  25.9  78.6   29.69     2
2020-01-21 23:00  22.4  24.9   233  31.8  25.7  77.9   29.72     2
2020-01-21 22:00  20.8  24.7   231  31.5  25.1  77.1   29.74     2
2020-01-21 21:00  20.0  21.8   231  31.1  24.0  74.7   29.75     2
2020-01-21 20:00  18.9  21.2   240  30.9  23.6  74.1   29.77     2
2020-01-21 19:00  17.5  19.6   243  30.6  22.8  72.5   29.79     2
2020-01-21 18:00  17.1  18.5   250  30.0  22.3  72.8   29.81     2
2020-01-21 17:00  15.2  16.7   250  29.7  22.2  73.6   29.82   128
2020-01-21 16:00  15.6  17.5   263  29.7  23.0  75.8   29.84   446
2020-01-21 15:00  15.2  16.7   264  29.3  21.5  72.3   29.85  1430
2020-01-21 14:00  15.4  16.7   271  28.9  21.5  73.3   29.87  1190
2020-01-21 13:00  14.8  15.9   271  28.4  21.2  74.1   29.89  1166
2020-01-21 12:00  13.6  16.5   273  28.8  21.3  73.4   29.92   951
2020-01-21 11:00  14.0  16.3   282  28.4  21.2  74.0   29.93   551
2020-01-21 10:00  13.2  15.2   275  27.9  20.9  74.8   29.92   291
2020-01-21 09:00  11.7  13.6   289  27.3  20.1  74.1   29.93    72
2020-01-21 08:00  11.9  12.8   298  26.8  19.4  73.5   29.92     5
2020-01-21 07:00  10.1  13.2   305  27.1  19.8  73.6   29.92     2
2020-01-21 06:00   9.9  11.1   286  27.1  18.1  68.5   29.93     2
2020-01-21 05:00   7.8   9.7   303  27.3  17.0  64.9   29.93     2
2020-01-21 04:00   6.6   8.4   282  26.8  17.8  68.7   29.93     2
2020-01-21 03:00   0.8   1.4    65  23.2  14.8  69.9   29.93     2
2020-01-21 02:00   2.3   2.5    97  23.9  15.5  70.0   29.93     2
2020-01-21 01:00   4.9   6.0    47  24.3  14.4  65.8   29.94     2
2020-01-21 00:00   3.1   4.1    55  24.1  14.4  66.3   29.93     2
2020-01-20 23:00   5.4   6.8    48  24.3  14.5  66.0   29.94     2
2020-01-20 22:00   4.3   5.2    48  24.3  14.5  66.0   29.94     2
2020-01-20 21:00   3.9   5.1    45  24.1  14.6  66.8   29.95     2
2020-01-20 20:00   4.7   5.6    38  24.4  15.5  68.5   29.95     2
2020-01-20 19:00   7.2   9.3    38  25.3  16.3  68.4   29.95     2
2020-01-20 18:00   8.7  10.3   350  26.1  16.6  67.1   29.94     2
2020-01-20 17:00   9.9  12.8   358  26.8  17.7  68.2   29.93    40
2020-01-20 16:00   2.3   2.7   265  26.2  20.4  78.5   29.93   106
2020-01-20 15:00   3.1   3.5   194  25.7  19.2  76.2   29.93   159
2020-01-20 14:00   2.5   2.9   212  25.7  18.9  75.3   29.93   271
2020-01-20 13:00   3.3   3.7   210  25.0  18.3  75.5   29.94   295
2020-01-20 12:00   1.2   2.3   179  24.4  17.3  73.9   29.95   295
2020-01-20 11:00   2.3   2.5   137  23.7  16.7  74.3   29.95   215
2020-01-20 10:00   3.3   3.9   163  23.4  16.6  75.0   29.93   118
2020-01-20 09:00   2.7   3.5   168  23.2  17.0  77.1   29.93    40
2020-01-20 08:00   4.7   5.6    93  23.0  16.2  74.8   29.91     2
2020-01-20 07:00   4.5   5.4    95  23.0  16.5  75.8   29.88     2
2020-01-20 06:00   6.8   9.1    90  23.0  16.1  74.5   29.86     2
2020-01-20 05:00   4.9   5.8    86  23.0  15.3  72.0   29.85     2
2020-01-20 04:00   6.2   7.4    80  23.4  15.3  70.9   29.84     2
2020-01-20 03:00   7.4   9.1    94  23.7  15.2  69.5   29.83     2
2020-01-20 02:00   5.6   8.2    87  23.7  14.7  68.1   29.82     2
2020-01-20 01:00   7.0   9.3    74  23.9  14.8  67.8   29.82     2
2020-01-20 00:00   8.9  10.1    70  23.9  14.9  68.2   29.82     2
2020-01-19 23:00   7.0   9.5    59  24.1  14.6  66.9   29.80     2
2020-01-19 22:00   6.8   9.1    58  23.5  14.6  68.5   29.80     2
2020-01-19 21:00   5.1   6.0    61  22.3  13.6  68.9   29.78     2
2020-01-19 20:00   7.2   9.1    33  23.0  13.9  67.8   29.76     2
2020-01-19 19:00   6.2   8.0    28  23.5  13.4  65.0   29.72     2